Kenton, OH (43326)

1:03 PM EST on December 03, 2016 (GMT -0500)
Long Island @ Indian Lake | | Change Station

Elev 1007 ft 40.51 °N, 83.85 °W | Updated 58 seconds ago

Overcast
Overcast
37.0 °F
Feels Like 34 °F
N
4.0
Wind Variable Wind from WSW

Today
High -- | Low -- °F
--% Chance of Precip.
Yesterday
High -- | Low -- °F
Precip. -- in
Pressure 30.30 in
Visibility 10.0 miles
Clouds Mostly Cloudy 2300 ft
Overcast 2900 ft
Windchill 34 °F
Dew Point 28 °F
Humidity 71%
Rainfall 0.00 in
Snow Depth Not available.
7:41 AM 5:07 PM
Waxing Crescent, 16% visible
METAR KEDJ 031735Z AUTO 27005KT 10SM BKN023 OVC029 02/M03 A3030 RMK AO1
Pressure 30.30 in
Visibility 10.0 miles
Clouds Mostly Cloudy 2300 ft
Overcast 2900 ft
Windchill 34 °F
Dew Point 28 °F
Humidity 71%
Rainfall 0.00 in
Snow Depth Not available.
7:41 AM 5:07 PM
Waxing Crescent, 16% visible
METAR KEDJ 031735Z AUTO 27005KT 10SM BKN023 OVC029 02/M03 A3030 RMK AO1

10-Day Weather Forecast

Almanac

Astronomy

Dec. 03, 2016 Rise Set
Actual Time
Civil Twilight
Nautical Twilight
Astronomical Twilight
Moon
Length of Visible Light
Length of Day
Tomorrow will be .
, % of the Moon is Illuminated

Today's Extremes

State Highs State Lows

Community

WunderPhotos

Upload Photos

1,955,455 photos uploaded!

WunderBlog® & News

Nearby

Air Quality

  Air Quality AQ Index Pollutant
Not available.

Snow Depth

Station Depth Elevation

Earthquake Activity

City Distance Mag. Time & Date
Minimum magnitude displayed is 2.5.

Coastal Water Temperatures

Place Temperature

Stations

Nearby Weather Stations

Station Location Temp. Windchill Dew Point Humidity Wind Precip. Elev Updated Type
                   

Watches & Warnings

There are currently no watches in effect.